Schedule Details


Flight Number: CTN495
Departure: Gatwick (EGKK) at 16:25
Arrival: Kastela (LDSP) at 19:45
Route: DVR L10 RINTI UL10 LESDO UL15 BEGAR UQ341 RESIA T415 LISKO M730 TORPO

Weather Information
EGKK 081250Z 07005KT 030V100 9000 NSC 20/10 Q1023
LDSP 081300Z 22010KT CAVOK 19/02 Q1024 NOSIG
Schedule Frequency

Route Map